Time;durP1;ratioP1;P1;durP2;ratioP2;P2;SDS_P1;SDS_P2;PMS_P1;PMS_P2;Temp;Humidity;BMP_temperature;BMP_pressure;BME280_temperature;BME280_humidity;BME280_pressure;Samples;Min_cycle;Max_cycle;Signal;HPM_P1;HPM_P2
2021/12/10 00:01:58;;;;;;;;;;;;;;;;;;7392054;19;19930;-59
2021/12/10 00:04:29;;;;;;;;;;;;;;;;;;7392148;19;19978;-57
2021/12/10 00:06:59;;;;;;;;;;;;;;;;;;7389736;19;19915;-58
2021/12/10 00:09:29;;;;;;;;;;;;;;;;;;7392075;19;19926;-59
2021/12/10 00:12:03;;;;;;;;;;;;;;;;;;7393730;19;19922;-59
2021/12/10 00:14:32;;;;;;;;;;;;;;;;;;7391901;19;19939;-59
2021/12/10 00:17:00;;;;;;;;;;;;;;;;;;7391811;19;19940;-59
2021/12/10 00:22:00;;;;;;;;;;;;;;;;;;7391610;19;19954;-59
2021/12/10 00:24:30;;;;;;;;;;;;;;;;;;7391735;19;19911;-59
2021/12/10 00:26:59;;;;;;;;;;;;;;;;;;7390968;19;19934;-54
2021/12/10 00:29:26;;;;;;;;;;;;;;;;;;7391562;19;19935;-54
2021/12/10 00:32:00;;;;;;;;;;;;;;;;;;7390463;19;19933;-58
2021/12/10 00:34:48;;;;;;;;;;;;;;;;;;7391172;19;19979;-56
2021/12/10 00:37:16;;;;;;;;;;;;;;;;;;7391743;19;20340;-58
2021/12/10 00:39:45;;;;;;;;;;;;;;;;;;7391387;19;19958;-59
2021/12/10 00:42:18;;;;;;;;;;;;;;;;;;7391349;19;20263;-59
2021/12/10 00:44:45;;;;;;;;;;;;;;;;;;7394199;19;19952;-57
2021/12/10 00:47:13;;;;;;;;;;;;;;;;;;7390945;19;19911;-58
2021/12/10 00:49:40;;;;;;;;;;;;;;;;;;7389311;19;19923;-59
2021/12/10 00:52:09;;;;;;;;;;;;;;;;;;7389131;19;19925;-58
2021/12/10 00:54:37;;;;;;;;;;;;;;;;;;7390783;19;19919;-57
2021/12/10 00:57:05;;;;;;;;;;;;;;;;;;7390514;19;20388;-57
2021/12/10 00:59:33;;;;;;;;;;;;;;;;;;7390596;19;19926;-58
2021/12/10 01:02:00;;;;;;;;;;;;;;;;;;7390049;19;20244;-57
2021/12/10 01:04:29;;;;;;;;;;;;;;;;;;7390452;19;19919;-59
2021/12/10 01:06:58;;;;;;;;;;;;;;;;;;7390312;19;19929;-58
2021/12/10 01:09:30;;;;;;;;;;;;;;;;;;7390370;19;19919;-59
2021/12/10 01:12:02;;;;;;;;;;;;;;;;;;7392670;19;19915;-56
2021/12/10 01:14:41;;;;;;;;;;;;;;;;;;7390181;19;19925;-59
2021/12/10 01:27:53;;;;;;;;;;;;;;;;;;7399572;19;19918;-59
2021/12/10 01:30:26;;;;;;;;;;;;;;;;;;7397580;19;19942;-59
2021/12/10 01:32:57;;;;;;;;;;;;;;;;;;7395352;19;19915;-59
2021/12/10 01:35:27;;;;;;;;;;;;;;;;;;7397257;19;19917;-59
2021/12/10 01:37:55;;;;;;;;;;;;;;;;;;7396379;19;19911;-58
2021/12/10 01:40:24;;;;;;;;;;;;;;;;;;7396535;19;20335;-58
2021/12/10 01:42:54;;;;;;;;;;;;;;;;;;7396702;19;20331;-59
2021/12/10 01:45:26;;;;;;;;;;;;;;;;;;7396502;19;19930;-58
2021/12/10 01:48:00;;;;;;;;;;;;;;;;;;7395828;19;20331;-60
2021/12/10 01:50:28;;;;;;;;;;;;;;;;;;7395652;19;19919;-60
2021/12/10 01:52:56;;;;;;;;;;;;;;;;;;7394870;19;20014;-60
2021/12/10 01:55:24;;;;;;;;;;;;;;;;;;7396053;19;20381;-59
2021/12/10 01:57:53;;;;;;;;;;;;;;;;;;7395937;19;19949;-59
2021/12/10 02:00:23;;;;;;;;;;;;;;;;;;7396464;19;19918;-59
2021/12/10 02:02:50;;;;;;;;;;;;;;;;;;7399242;19;19923;-60
2021/12/10 02:05:18;;;;;;;;;;;;;;;;;;7396054;19;20323;-60
2021/12/10 02:07:46;;;;;;;;;;;;;;;;;;7394811;19;19919;-57
2021/12/10 02:10:15;;;;;;;;;;;;;;;;;;7396631;19;19919;-58
2021/12/10 02:12:42;;;;;;;;;;;;;;;;;;7395403;19;20007;-59
2021/12/10 02:15:11;;;;;;;;;;;;;;;;;;7395109;19;19978;-59
2021/12/10 02:17:40;;;;;;;;;;;;;;;;;;7397870;19;19923;-60
2021/12/10 02:20:11;;;;;;;;;;;;;;;;;;7395525;19;20022;-59
2021/12/10 02:22:39;;;;;;;;;;;;;;;;;;7395500;19;19919;-59
2021/12/10 02:25:07;;;;;;;;;;;;;;;;;;7395552;19;19921;-58
2021/12/10 02:27:34;;;;;;;;;;;;;;;;;;7395385;19;20335;-59
2021/12/10 02:30:03;;;;;;;;;;;;;;;;;;7392658;19;19934;-57
2021/12/10 02:32:31;;;;;;;;;;;;;;;;;;7394350;19;19959;-60
2021/12/10 02:34:58;;;;;;;;;;;;;;;;;;7395593;19;19926;-60
2021/12/10 02:37:25;;;;;;;;;;;;;;;;;;7395226;19;19919;-59
2021/12/10 02:39:52;;;;;;;;;;;;;;;;;;7394972;19;19911;-59
2021/12/10 02:42:19;;;;;;;;;;;;;;;;;;7394373;19;19978;-59
2021/12/10 02:44:47;;;;;;;;;;;;;;;;;;7395260;19;19918;-59
2021/12/10 02:47:16;;;;;;;;;;;;;;;;;;7394559;19;20239;-59
2021/12/10 02:49:43;;;;;;;;;;;;;;;;;;7394939;19;20335;-60
2021/12/10 02:52:11;;;;;;;;;;;;;;;;;;7393759;19;19911;-59
2021/12/10 02:54:38;;;;;;;;;;;;;;;;;;7393263;19;19915;-60
2021/12/10 02:57:10;;;;;;;;;;;;;;;;;;7394310;19;19928;-58
2021/12/10 02:59:37;;;;;;;;;;;;;;;;;;7394203;19;19918;-59
2021/12/10 03:02:06;;;;;;;;;;;;;;;;;;7394297;19;19914;-59
2021/12/10 03:04:34;;;;;;;;;;;;;;;;;;7394201;19;19925;-57
2021/12/10 03:07:06;;;;;;;;;;;;;;;;;;7394423;19;20016;-59
2021/12/10 03:09:34;;;;;;;;;;;;;;;;;;7393784;19;19918;-60
2021/12/10 03:12:01;;;;;;;;;;;;;;;;;;7396632;19;19942;-57
2021/12/10 03:14:30;;;;;;;;;;;;;;;;;;7394068;19;19911;-57
2021/12/10 03:16:59;;;;;;;;;;;;;;;;;;7393119;19;19929;-57
2021/12/10 03:19:26;;;;;;;;;;;;;;;;;;7393724;19;19931;-58
2021/12/10 03:21:54;;;;;;;;;;;;;;;;;;7393426;19;20374;-59
2021/12/10 03:24:23;;;;;;;;;;;;;;;;;;7391649;19;20350;-60
2021/12/10 03:26:53;;;;;;;;;;;;;;;;;;7393180;19;19917;-57
2021/12/10 03:29:21;;;;;;;;;;;;;;;;;;7393070;19;19915;-60
2021/12/10 03:31:49;;;;;;;;;;;;;;;;;;7392662;19;19911;-56
2021/12/10 03:34:16;;;;;;;;;;;;;;;;;;7392983;19;19931;-58
2021/12/10 03:36:46;;;;;;;;;;;;;;;;;;7393199;19;19922;-59
2021/12/10 03:39:14;;;;;;;;;;;;;;;;;;7393185;19;20327;-55
2021/12/10 03:41:42;;;;;;;;;;;;;;;;;;7393074;19;20048;-58
2021/12/10 03:44:10;;;;;;;;;;;;;;;;;;7392772;19;19915;-55
2021/12/10 03:46:37;;;;;;;;;;;;;;;;;;7392517;19;20116;-54
2021/12/10 03:49:06;;;;;;;;;;;;;;;;;;7392092;19;19949;-55
2021/12/10 03:51:33;;;;;;;;;;;;;;;;;;7391767;19;20000;-57
2021/12/10 03:54:02;;;;;;;;;;;;;;;;;;7390790;19;19923;-56
2021/12/10 03:56:30;;;;;;;;;;;;;;;;;;7392141;19;20264;-58
2021/12/10 03:58:59;;;;;;;;;;;;;;;;;;7392502;19;19915;-53
2021/12/10 04:01:28;;;;;;;;;;;;;;;;;;7391736;19;19919;-54
2021/12/10 04:03:56;;;;;;;;;;;;;;;;;;7391705;19;19923;-55
2021/12/10 04:06:24;;;;;;;;;;;;;;;;;;7392105;19;19921;-57
2021/12/10 04:08:54;;;;;;;;;;;;;;;;;;7391895;19;19922;-54
2021/12/10 04:11:22;;;;;;;;;;;;;;;;;;7393990;19;20240;-58
2021/12/10 04:13:50;;;;;;;;;;;;;;;;;;7390106;19;19915;-54
2021/12/10 04:16:18;;;;;;;;;;;;;;;;;;7391349;19;19919;-55
2021/12/10 04:18:47;;;;;;;;;;;;;;;;;;7390238;19;19991;-61
2021/12/10 04:21:15;;;;;;;;;;;;;;;;;;7391823;19;20473;-58
2021/12/10 04:23:43;;;;;;;;;;;;;;;;;;7392277;19;19919;-54
2021/12/10 04:26:12;;;;;;;;;;;;;;;;;;7392896;19;19932;-57
2021/12/10 04:28:39;;;;;;;;;;;;;;;;;;7391084;19;19938;-52
2021/12/10 04:31:07;;;;;;;;;;;;;;;;;;7391267;19;19919;-55
2021/12/10 04:33:34;;;;;;;;;;;;;;;;;;7390922;19;19919;-57
2021/12/10 04:36:02;;;;;;;;;;;;;;;;;;7390998;19;20343;-55
2021/12/10 04:38:32;;;;;;;;;;;;;;;;;;7391509;19;19911;-58
2021/12/10 04:41:01;;;;;;;;;;;;;;;;;;7391257;19;19921;-58
2021/12/10 04:43:29;;;;;;;;;;;;;;;;;;7390737;19;20335;-59
2021/12/10 04:45:57;;;;;;;;;;;;;;;;;;7333611;19;1005324;-57
2021/12/10 04:48:25;;;;;;;;;;;;;;;;;;7389590;19;20390;-56
2021/12/10 04:50:54;;;;;;;;;;;;;;;;;;7390441;19;20371;-58
2021/12/10 04:53:22;;;;;;;;;;;;;;;;;;7395871;19;19919;-59
2021/12/10 04:55:49;;;;;;;;;;;;;;;;;;7398296;19;19915;-57
2021/12/10 04:58:17;;;;;;;;;;;;;;;;;;7399415;19;19934;-58
2021/12/10 05:00:46;;;;;;;;;;;;;;;;;;7398783;19;19926;-57
2021/12/10 05:03:13;;;;;;;;;;;;;;;;;;7399034;19;19918;-58
2021/12/10 05:05:42;;;;;;;;;;;;;;;;;;7398199;19;19919;-58
2021/12/10 05:08:09;;;;;;;;;;;;;;;;;;7402327;19;19919;-56
2021/12/10 05:10:36;;;;;;;;;;;;;;;;;;7398433;19;19943;-55
2021/12/10 05:13:04;;;;;;;;;;;;;;;;;;7396835;19;19953;-56
2021/12/10 05:15:32;;;;;;;;;;;;;;;;;;7397320;19;20371;-56
2021/12/10 05:18:00;;;;;;;;;;;;;;;;;;7395538;19;19919;-55
2021/12/10 05:20:37;;;;;;;;;;;;;;;;;;7397800;19;19975;-58
2021/12/10 05:23:05;;;;;;;;;;;;;;;;;;7398051;19;20253;-53
2021/12/10 05:25:32;;;;;;;;;;;;;;;;;;7397521;19;19918;-54
2021/12/10 05:27:59;;;;;;;;;;;;;;;;;;7395558;19;19914;-56
2021/12/10 05:30:29;;;;;;;;;;;;;;;;;;7397182;19;19931;-57
2021/12/10 05:32:56;;;;;;;;;;;;;;;;;;7394722;19;19938;-58
2021/12/10 05:35:24;;;;;;;;;;;;;;;;;;7396674;19;19919;-57
2021/12/10 05:37:51;;;;;;;;;;;;;;;;;;7397155;19;19915;-56
2021/12/10 05:40:19;;;;;;;;;;;;;;;;;;7396958;19;19923;-57
2021/12/10 05:42:46;;;;;;;;;;;;;;;;;;7397194;19;19942;-57
2021/12/10 05:45:14;;;;;;;;;;;;;;;;;;7396457;19;19923;-58
2021/12/10 05:47:42;;;;;;;;;;;;;;;;;;7396719;19;19931;-58
2021/12/10 05:50:10;;;;;;;;;;;;;;;;;;7396545;19;19922;-57
2021/12/10 05:52:38;;;;;;;;;;;;;;;;;;7395739;19;19919;-58
2021/12/10 05:55:05;;;;;;;;;;;;;;;;;;7396065;19;19925;-57
2021/12/10 05:57:32;;;;;;;;;;;;;;;;;;7396684;19;19922;-58
2021/12/10 06:00:00;;;;;;;;;;;;;;;;;;7396128;19;19907;-55
2021/12/10 06:02:35;;;;;;;;;;;;;;;;;;7395621;19;19925;-56
2021/12/10 06:05:03;;;;;;;;;;;;;;;;;;7393392;19;19921;-56
2021/12/10 06:07:35;;;;;;;;;;;;;;;;;;7396820;19;19942;-54
2021/12/10 06:10:02;;;;;;;;;;;;;;;;;;7395825;19;19915;-57
2021/12/10 06:12:30;;;;;;;;;;;;;;;;;;7400466;19;19942;-57
2021/12/10 06:14:57;;;;;;;;;;;;;;;;;;7395162;19;19919;-52
2021/12/10 06:17:25;;;;;;;;;;;;;;;;;;7396502;19;19927;-51
2021/12/10 06:19:52;;;;;;;;;;;;;;;;;;7395071;19;20332;-51
2021/12/10 06:22:19;;;;;;;;;;;;;;;;;;7396035;19;19927;-58
2021/12/10 06:24:46;;;;;;;;;;;;;;;;;;7395777;19;19914;-59
2021/12/10 06:27:14;;;;;;;;;;;;;;;;;;7396473;19;19945;-58
2021/12/10 06:29:42;;;;;;;;;;;;;;;;;;7394868;19;19935;-58
2021/12/10 06:32:10;;;;;;;;;;;;;;;;;;7395431;19;19921;-59
2021/12/10 06:34:37;;;;;;;;;;;;;;;;;;7393251;19;19975;-57
2021/12/10 06:37:05;;;;;;;;;;;;;;;;;;7395002;19;19919;-57
2021/12/10 06:39:33;;;;;;;;;;;;;;;;;;7394523;19;19925;-59
2021/12/10 06:42:00;;;;;;;;;;;;;;;;;;7394409;19;19919;-59
2021/12/10 06:44:28;;;;;;;;;;;;;;;;;;7394674;19;19921;-53
2021/12/10 06:46:55;;;;;;;;;;;;;;;;;;7394251;19;20328;-55
2021/12/10 06:49:22;;;;;;;;;;;;;;;;;;7394687;19;19993;-58
2021/12/10 06:51:49;;;;;;;;;;;;;;;;;;7394606;19;19914;-59
2021/12/10 06:54:17;;;;;;;;;;;;;;;;;;7392986;19;19914;-57
2021/12/10 06:56:44;;;;;;;;;;;;;;;;;;7391996;19;19954;-58
2021/12/10 06:59:11;;;;;;;;;;;;;;;;;;7393028;19;20313;-60
2021/12/10 07:01:39;;;;;;;;;;;;;;;;;;7393821;19;19938;-58
2021/12/10 07:04:11;;;;;;;;;;;;;;;;;;7394237;19;19919;-58
2021/12/10 07:06:40;;;;;;;;;;;;;;;;;;7394324;19;19948;-58
2021/12/10 07:09:10;;;;;;;;;;;;;;;;;;7393550;19;19914;-58
2021/12/10 07:11:37;;;;;;;;;;;;;;;;;;7397036;19;19914;-58
2021/12/10 07:14:04;;;;;;;;;;;;;;;;;;7392134;19;19919;-57
2021/12/10 07:16:32;;;;;;;;;;;;;;;;;;7393724;19;19934;-58
2021/12/10 07:19:01;;;;;;;;;;;;;;;;;;7393777;19;19942;-57
2021/12/10 07:21:29;;;;;;;;;;;;;;;;;;7396536;19;19923;-59
2021/12/10 07:23:56;;;;;;;;;;;;;;;;;;7393133;19;19923;-58
2021/12/10 07:26:24;;;;;;;;;;;;;;;;;;7393239;19;20384;-58
2021/12/10 07:28:51;;;;;;;;;;;;;;;;;;7392745;19;19910;-56
2021/12/10 07:31:18;;;;;;;;;;;;;;;;;;7393713;19;19915;-58
2021/12/10 07:33:46;;;;;;;;;;;;;;;;;;7392630;19;19911;-58
2021/12/10 07:36:15;;;;;;;;;;;;;;;;;;7392580;19;19919;-58
2021/12/10 07:38:42;;;;;;;;;;;;;;;;;;7392764;19;19915;-58
2021/12/10 07:41:10;;;;;;;;;;;;;;;;;;7391380;19;19990;-59
2021/12/10 07:43:37;;;;;;;;;;;;;;;;;;7392543;19;19921;-57
2021/12/10 10:47:13;;;;;;;;;;;;;;;;;;7388044;19;19913;-59
2021/12/10 10:50:09;;;;;;;;;;;;;;;;;;7389976;19;20328;-59
2021/12/10 10:53:01;;;;;;;;;;;;;;;;;;7392482;19;19992;-56
2021/12/10 10:55:54;;;;;;;;;;;;;;;;;;7392363;19;19932;-58
2021/12/10 10:58:49;;;;;;;;;;;;;;;;;;7392438;19;19939;-59
2021/12/10 11:01:44;;;;;;;;;;;;;;;;;;7391301;19;19934;-57
2021/12/10 11:04:36;;;;;;;;;;;;;;;;;;7392000;19;19938;-58
2021/12/10 11:07:30;;;;;;;;;;;;;;;;;;7391926;19;19922;-57
2021/12/10 11:10:22;;;;;;;;;;;;;;;;;;7392501;19;19941;-58
2021/12/10 11:13:15;;;;;;;;;;;;;;;;;;7391606;19;20355;-58
2021/12/10 11:16:08;;;;;;;;;;;;;;;;;;7390919;19;19930;-58
2021/12/10 11:19:01;;;;;;;;;;;;;;;;;;7392026;19;19926;-59
2021/12/10 11:21:54;;;;;;;;;;;;;;;;;;7390661;19;19933;-59
2021/12/10 11:24:47;;;;;;;;;;;;;;;;;;7390980;19;19930;-59
2021/12/10 11:27:40;;;;;;;;;;;;;;;;;;7391109;19;19990;-59
2021/12/10 11:30:33;;;;;;;;;;;;;;;;;;7390655;19;19930;-59
2021/12/10 11:33:26;;;;;;;;;;;;;;;;;;7390576;19;19955;-59
2021/12/10 11:36:22;;;;;;;;;;;;;;;;;;7390647;19;19997;-59
2021/12/10 11:39:15;;;;;;;;;;;;;;;;;;7390538;19;19929;-58
2021/12/10 11:42:07;;;;;;;;;;;;;;;;;;7390805;19;20290;-58
2021/12/10 11:45:41;;;;;;;;;;;;;;;;;;7390813;19;19987;-59
2021/12/10 14:43:05;;;;;;;;;;;;;;;;;;7390616;19;20252;-52
2021/12/10 14:45:33;;;;;;;;;;;;;;;;;;7394108;19;19923;-60
2021/12/10 14:48:10;;;;;;;;;;;;;;;;;;7397332;19;20330;-51
2021/12/10 14:50:59;;;;;;;;;;;;;;;;;;7394181;19;19926;-60
2021/12/10 14:53:47;;;;;;;;;;;;;;;;;;7392820;19;19911;-58
2021/12/10 14:56:42;;;;;;;;;;;;;;;;;;7394367;19;20303;-54
2021/12/10 14:59:43;;;;;;;;;;;;;;;;;;7395861;19;20335;-46
2021/12/10 15:02:36;;;;;;;;;;;;;;;;;;7397057;19;19911;-49
2021/12/10 15:05:41;;;;;;;;;;;;;;;;;;7393022;19;19925;-52
2021/12/10 15:08:51;;;;;;;;;;;;;;;;;;7393555;19;20285;-47
2021/12/10 15:11:49;;;;;;;;;;;;;;;;;;7394183;19;20000;-55
2021/12/10 15:14:40;;;;;;;;;;;;;;;;;;7391106;19;19919;-55
2021/12/10 15:17:34;;;;;;;;;;;;;;;;;;7392150;19;19915;-61
2021/12/10 15:20:17;;;;;;;;;;;;;;;;;;7395277;19;19922;-62
2021/12/10 15:22:45;;;;;;;;;;;;;;;;;;7393437;19;19919;-62
2021/12/10 15:25:21;;;;;;;;;;;;;;;;;;7391488;19;19919;-58
2021/12/10 15:28:00;;;;;;;;;;;;;;;;;;7393296;19;19915;-54
2021/12/10 15:30:29;;;;;;;;;;;;;;;;;;7392209;19;19915;-49
2021/12/10 15:33:00;;;;;;;;;;;;;;;;;;7396347;19;19919;-49
2021/12/10 15:35:41;;;;;;;;;;;;;;;;;;7388772;19;19955;-51
2021/12/10 15:38:11;;;;;;;;;;;;;;;;;;7393382;19;19915;-52
2021/12/10 15:40:43;;;;;;;;;;;;;;;;;;7393173;19;19914;-51
2021/12/10 15:43:12;;;;;;;;;;;;;;;;;;7393240;19;19914;-60
2021/12/10 15:45:41;;;;;;;;;;;;;;;;;;7392970;19;19919;-58
2021/12/10 15:48:09;;;;;;;;;;;;;;;;;;7392456;19;19911;-54
2021/12/10 15:50:39;;;;;;;;;;;;;;;;;;7392042;19;19950;-53
2021/12/10 15:53:09;;;;;;;;;;;;;;;;;;7392349;19;19918;-54
2021/12/10 15:55:38;;;;;;;;;;;;;;;;;;7390584;19;19919;-58
2021/12/10 15:58:11;;;;;;;;;;;;;;;;;;7392624;19;19915;-59
2021/12/10 16:00:40;;;;;;;;;;;;;;;;;;7392147;19;20351;-49
2021/12/10 16:03:22;;;;;;;;;;;;;;;;;;7392807;19;20405;-55
2021/12/10 16:05:50;;;;;;;;;;;;;;;;;;7393663;19;19939;-59
2021/12/10 16:08:17;;;;;;;;;;;;;;;;;;7392064;19;19919;-52
2021/12/10 16:10:47;;;;;;;;;;;;;;;;;;7391636;19;19923;-55
2021/12/10 16:13:16;;;;;;;;;;;;;;;;;;7391651;19;19915;-56
2021/12/10 16:15:46;;;;;;;;;;;;;;;;;;7391339;19;19925;-51
2021/12/10 16:18:14;;;;;;;;;;;;;;;;;;7391610;19;19915;-54
2021/12/10 16:20:49;;;;;;;;;;;;;;;;;;7391953;19;19970;-63
2021/12/10 16:23:18;;;;;;;;;;;;;;;;;;7391472;19;19938;-65
2021/12/10 16:25:45;;;;;;;;;;;;;;;;;;7391371;19;19978;-67
2021/12/10 16:28:13;;;;;;;;;;;;;;;;;;7392228;19;20262;-61
2021/12/10 16:30:46;;;;;;;;;;;;;;;;;;7391500;19;19943;-67
2021/12/10 16:33:14;;;;;;;;;;;;;;;;;;7390139;19;20263;-62
2021/12/10 16:35:43;;;;;;;;;;;;;;;;;;7389476;19;19954;-62
2021/12/10 16:38:12;;;;;;;;;;;;;;;;;;7392188;19;19941;-62
2021/12/10 16:40:42;;;;;;;;;;;;;;;;;;7392291;19;19919;-66
2021/12/10 16:43:11;;;;;;;;;;;;;;;;;;7391040;19;19922;-66
2021/12/10 16:45:39;;;;;;;;;;;;;;;;;;7390573;19;19921;-67
2021/12/10 16:48:13;;;;;;;;;;;;;;;;;;7394222;19;19915;-61
2021/12/10 16:50:41;;;;;;;;;;;;;;;;;;7399221;19;19919;-51
2021/12/10 16:53:08;;;;;;;;;;;;;;;;;;7398230;19;20270;-52
2021/12/10 16:55:37;;;;;;;;;;;;;;;;;;7395408;19;19946;-62
2021/12/10 16:58:09;;;;;;;;;;;;;;;;;;7398452;19;20330;-53
2021/12/10 17:00:42;;;;;;;;;;;;;;;;;;7397438;19;19918;-55
2021/12/10 17:03:19;;;;;;;;;;;;;;;;;;7398457;19;20047;-52
2021/12/10 17:05:50;;;;;;;;;;;;;;;;;;7397432;19;20342;-49
2021/12/10 17:08:25;;;;;;;;;;;;;;;;;;7398196;19;19923;-62
2021/12/10 17:10:56;;;;;;;;;;;;;;;;;;7397797;19;19911;-49
2021/12/10 17:13:28;;;;;;;;;;;;;;;;;;7397859;19;19915;-52
2021/12/10 17:15:56;;;;;;;;;;;;;;;;;;7394535;19;20274;-49
2021/12/10 17:18:25;;;;;;;;;;;;;;;;;;7397582;19;19915;-47
2021/12/10 17:21:12;;;;;;;;;;;;;;;;;;7397423;19;19919;-55
2021/12/10 17:23:43;;;;;;;;;;;;;;;;;;7390617;19;19911;-56
2021/12/10 17:26:15;;;;;;;;;;;;;;;;;;7397995;19;19978;-54
2021/12/10 17:28:44;;;;;;;;;;;;;;;;;;7397109;19;19923;-55
2021/12/10 17:31:15;;;;;;;;;;;;;;;;;;7394320;19;20254;-55
2021/12/10 17:33:49;;;;;;;;;;;;;;;;;;7397017;19;19932;-60
2021/12/10 17:36:21;;;;;;;;;;;;;;;;;;7398321;19;20358;-59
2021/12/10 17:38:50;;;;;;;;;;;;;;;;;;7396814;19;19950;-54
2021/12/10 17:41:19;;;;;;;;;;;;;;;;;;7397305;19;19932;-56
2021/12/10 17:43:48;;;;;;;;;;;;;;;;;;7397100;19;19915;-57
2021/12/10 17:46:17;;;;;;;;;;;;;;;;;;7397062;19;20006;-60
2021/12/10 17:48:47;;;;;;;;;;;;;;;;;;7396506;19;19922;-56
2021/12/10 17:51:20;;;;;;;;;;;;;;;;;;7394930;19;19919;-56
2021/12/10 17:53:49;;;;;;;;;;;;;;;;;;7396677;19;19915;-52
2021/12/10 17:56:17;;;;;;;;;;;;;;;;;;7396531;19;19957;-62
2021/12/10 17:58:45;;;;;;;;;;;;;;;;;;7396141;19;19929;-53
2021/12/10 18:01:26;;;;;;;;;;;;;;;;;;7393991;19;19998;-54
2021/12/10 18:03:56;;;;;;;;;;;;;;;;;;7396598;19;19930;-55
2021/12/10 18:06:35;;;;;;;;;;;;;;;;;;7397519;19;19933;-57
2021/12/10 18:09:12;;;;;;;;;;;;;;;;;;7395523;19;19918;-53
2021/12/10 18:11:49;;;;;;;;;;;;;;;;;;7393532;19;19935;-59
2021/12/10 18:14:17;;;;;;;;;;;;;;;;;;7395093;19;19917;-58
2021/12/10 18:16:45;;;;;;;;;;;;;;;;;;7395650;19;19934;-58
2021/12/10 18:19:12;;;;;;;;;;;;;;;;;;7396922;19;19911;-58
2021/12/10 18:21:42;;;;;;;;;;;;;;;;;;7395268;19;19914;-54
2021/12/10 18:24:13;;;;;;;;;;;;;;;;;;7393018;19;19951;-62
2021/12/10 18:26:46;;;;;;;;;;;;;;;;;;7393673;19;19982;-63
2021/12/10 18:29:21;;;;;;;;;;;;;;;;;;7395511;19;19942;-61
2021/12/10 18:31:51;;;;;;;;;;;;;;;;;;7395377;19;19922;-63
2021/12/10 18:34:21;;;;;;;;;;;;;;;;;;7394468;19;19942;-62
2021/12/10 18:36:48;;;;;;;;;;;;;;;;;;7397711;19;19967;-62
2021/12/10 18:39:18;;;;;;;;;;;;;;;;;;7394704;19;19919;-61
2021/12/10 18:41:51;;;;;;;;;;;;;;;;;;7394694;19;19915;-62
2021/12/10 18:44:35;;;;;;;;;;;;;;;;;;7394858;19;19915;-59
2021/12/10 18:47:04;;;;;;;;;;;;;;;;;;7394650;19;19969;-59
2021/12/10 18:49:31;;;;;;;;;;;;;;;;;;7394840;19;19929;-61
2021/12/10 18:52:00;;;;;;;;;;;;;;;;;;7394165;19;19919;-62
2021/12/10 18:54:32;;;;;;;;;;;;;;;;;;7394688;19;19919;-62
2021/12/10 18:57:06;;;;;;;;;;;;;;;;;;7394381;19;19922;-60
2021/12/10 18:59:36;;;;;;;;;;;;;;;;;;7394537;19;19922;-64
2021/12/10 19:02:07;;;;;;;;;;;;;;;;;;7394508;19;19911;-65
2021/12/10 19:04:43;;;;;;;;;;;;;;;;;;7397421;19;19923;-63
2021/12/10 19:07:23;;;;;;;;;;;;;;;;;;7393574;19;19915;-62
2021/12/10 19:09:54;;;;;;;;;;;;;;;;;;7393991;19;19911;-62
2021/12/10 19:12:41;;;;;;;;;;;;;;;;;;7393237;19;19941;-64
2021/12/10 19:15:12;;;;;;;;;;;;;;;;;;7392635;19;20322;-63
2021/12/10 19:17:41;;;;;;;;;;;;;;;;;;7393450;19;19919;-62
2021/12/10 19:20:12;;;;;;;;;;;;;;;;;;7393484;19;19926;-64
2021/12/10 19:22:42;;;;;;;;;;;;;;;;;;7392724;19;19919;-63
2021/12/10 19:25:14;;;;;;;;;;;;;;;;;;7393548;19;20370;-62
2021/12/10 19:27:44;;;;;;;;;;;;;;;;;;7393383;19;19910;-61
2021/12/10 19:30:14;;;;;;;;;;;;;;;;;;7392883;19;19919;-64
2021/12/10 19:32:43;;;;;;;;;;;;;;;;;;7390912;19;19922;-65
2021/12/10 19:35:17;;;;;;;;;;;;;;;;;;7392024;19;19954;-62
2021/12/10 19:37:49;;;;;;;;;;;;;;;;;;7393275;19;19938;-62
2021/12/10 19:40:23;;;;;;;;;;;;;;;;;;7392364;19;19923;-60
2021/12/10 19:42:50;;;;;;;;;;;;;;;;;;7392398;19;19921;-60
2021/12/10 19:45:27;;;;;;;;;;;;;;;;;;7391600;19;19919;-63
2021/12/10 19:48:05;;;;;;;;;;;;;;;;;;7393124;19;19923;-62
2021/12/10 19:50:32;;;;;;;;;;;;;;;;;;7392753;19;19983;-63
2021/12/10 19:53:04;;;;;;;;;;;;;;;;;;7392523;19;19919;-60
2021/12/10 19:55:35;;;;;;;;;;;;;;;;;;7391283;19;19919;-60
2021/12/10 19:58:03;;;;;;;;;;;;;;;;;;7392833;19;19932;-60
2021/12/10 20:00:42;;;;;;;;;;;;;;;;;;7391863;19;19911;-61
2021/12/10 20:03:16;;;;;;;;;;;;;;;;;;7392521;19;19925;-60
2021/12/10 20:05:50;;;;;;;;;;;;;;;;;;7391634;19;20341;-63
2021/12/10 20:08:20;;;;;;;;;;;;;;;;;;7392470;19;19914;-63
2021/12/10 20:10:53;;;;;;;;;;;;;;;;;;7392599;19;19935;-60
2021/12/10 20:13:27;;;;;;;;;;;;;;;;;;7392158;19;19914;-62
2021/12/10 20:15:58;;;;;;;;;;;;;;;;;;7390727;19;19919;-62
2021/12/10 20:18:28;;;;;;;;;;;;;;;;;;7391157;19;19922;-61
2021/12/10 20:20:55;;;;;;;;;;;;;;;;;;7391372;19;19918;-60
2021/12/10 20:23:27;;;;;;;;;;;;;;;;;;7395416;19;19910;-60
2021/12/10 20:25:58;;;;;;;;;;;;;;;;;;7399341;19;19923;-61
2021/12/10 20:28:32;;;;;;;;;;;;;;;;;;7398979;19;19919;-60
2021/12/10 20:31:07;;;;;;;;;;;;;;;;;;7399060;19;19928;-62
2021/12/10 20:33:37;;;;;;;;;;;;;;;;;;7399964;19;19915;-60
2021/12/10 20:36:24;;;;;;;;;;;;;;;;;;7399390;19;19911;-61
2021/12/10 20:38:53;;;;;;;;;;;;;;;;;;7398360;19;19919;-61
2021/12/10 20:41:34;;;;;;;;;;;;;;;;;;7399089;19;19914;-62
2021/12/10 20:44:16;;;;;;;;;;;;;;;;;;7399366;19;19919;-60
2021/12/10 20:46:50;;;;;;;;;;;;;;;;;;7398622;19;19911;-60
2021/12/10 20:49:28;;;;;;;;;;;;;;;;;;7398576;19;19918;-61
2021/12/10 20:51:58;;;;;;;;;;;;;;;;;;7397989;19;19915;-59
2021/12/10 20:54:28;;;;;;;;;;;;;;;;;;7398301;19;20659;-60
2021/12/10 20:57:03;;;;;;;;;;;;;;;;;;7398729;19;19964;-63
2021/12/10 20:59:45;;;;;;;;;;;;;;;;;;7397843;19;19926;-60
2021/12/10 21:02:24;;;;;;;;;;;;;;;;;;7397612;19;19954;-60
2021/12/10 21:04:56;;;;;;;;;;;;;;;;;;7398032;19;19944;-59
2021/12/10 21:07:27;;;;;;;;;;;;;;;;;;7395978;19;19914;-63
2021/12/10 21:09:59;;;;;;;;;;;;;;;;;;7397669;19;19915;-61
2021/12/10 21:12:28;;;;;;;;;;;;;;;;;;7397508;19;19982;-62
2021/12/10 21:15:09;;;;;;;;;;;;;;;;;;7396742;19;19938;-59
2021/12/10 21:17:39;;;;;;;;;;;;;;;;;;7397534;19;19915;-60
2021/12/10 21:20:10;;;;;;;;;;;;;;;;;;7397847;19;19911;-60
2021/12/10 21:22:49;;;;;;;;;;;;;;;;;;7398066;19;20327;-60
2021/12/10 21:25:19;;;;;;;;;;;;;;;;;;7397325;19;20340;-60
2021/12/10 21:27:54;;;;;;;;;;;;;;;;;;7397440;19;19974;-61
2021/12/10 21:30:27;;;;;;;;;;;;;;;;;;7397131;19;19995;-61
2021/12/10 21:32:56;;;;;;;;;;;;;;;;;;7397540;19;19929;-60
2021/12/10 21:35:32;;;;;;;;;;;;;;;;;;7396024;19;19946;-60
2021/12/10 21:38:10;;;;;;;;;;;;;;;;;;7396864;19;19910;-61
2021/12/10 21:40:44;;;;;;;;;;;;;;;;;;7393760;19;20331;-62
2021/12/10 21:43:15;;;;;;;;;;;;;;;;;;7397338;19;20076;-62
2021/12/10 21:45:44;;;;;;;;;;;;;;;;;;7397095;19;19938;-61
2021/12/10 21:48:13;;;;;;;;;;;;;;;;;;7396932;19;19919;-62
2021/12/10 21:50:43;;;;;;;;;;;;;;;;;;7397233;19;19915;-60
2021/12/10 21:53:12;;;;;;;;;;;;;;;;;;7396386;19;19922;-60
2021/12/10 21:55:45;;;;;;;;;;;;;;;;;;7395951;19;19914;-57
2021/12/10 21:58:14;;;;;;;;;;;;;;;;;;7396288;19;19915;-61
2021/12/10 22:00:50;;;;;;;;;;;;;;;;;;7395618;19;19925;-60
2021/12/10 22:03:21;;;;;;;;;;;;;;;;;;7396038;19;19943;-62
2021/12/10 22:05:53;;;;;;;;;;;;;;;;;;7396450;19;19915;-62
2021/12/10 22:08:25;;;;;;;;;;;;;;;;;;7395855;19;19938;-64
2021/12/10 22:10:56;;;;;;;;;;;;;;;;;;7395872;19;20247;-62
2021/12/10 22:13:23;;;;;;;;;;;;;;;;;;7395593;19;19921;-61
2021/12/10 22:15:56;;;;;;;;;;;;;;;;;;7395149;19;19935;-63
2021/12/10 22:18:29;;;;;;;;;;;;;;;;;;7395636;19;20005;-62
2021/12/10 22:21:06;;;;;;;;;;;;;;;;;;7395655;19;19926;-61
2021/12/10 22:23:34;;;;;;;;;;;;;;;;;;7395919;19;19927;-62
2021/12/10 22:26:03;;;;;;;;;;;;;;;;;;7395658;19;19923;-61
2021/12/10 22:28:35;;;;;;;;;;;;;;;;;;7395540;19;19914;-58
2021/12/10 22:31:14;;;;;;;;;;;;;;;;;;7395138;19;19934;-59
2021/12/10 22:33:41;;;;;;;;;;;;;;;;;;7395584;19;19928;-63
2021/12/10 22:36:22;;;;;;;;;;;;;;;;;;7395179;19;19972;-62
2021/12/10 22:38:59;;;;;;;;;;;;;;;;;;7394304;19;19919;-60
2021/12/10 22:41:31;;;;;;;;;;;;;;;;;;7394815;19;19926;-61
2021/12/10 22:44:01;;;;;;;;;;;;;;;;;;7394787;19;19938;-60
2021/12/10 22:46:31;;;;;;;;;;;;;;;;;;7392320;19;20335;-63
2021/12/10 22:49:04;;;;;;;;;;;;;;;;;;7393920;19;19918;-63
2021/12/10 22:51:38;;;;;;;;;;;;;;;;;;7395274;19;19918;-60
2021/12/10 22:54:10;;;;;;;;;;;;;;;;;;7394942;19;19915;-60
2021/12/10 22:56:40;;;;;;;;;;;;;;;;;;7393000;19;19934;-60
2021/12/10 22:59:11;;;;;;;;;;;;;;;;;;7393988;19;19922;-61
2021/12/10 23:01:48;;;;;;;;;;;;;;;;;;7394312;19;19919;-62
2021/12/10 23:04:38;;;;;;;;;;;;;;;;;;7395063;19;19914;-63
2021/12/10 23:08:03;;;;;;;;;;;;;;;;;;7392885;19;19925;-61
2021/12/10 23:10:12;;;;;;;;;;;;;;;;;;7392743;19;19941;-59
2021/12/10 23:12:42;;;;;;;;;;;;;;;;;;7393630;19;19919;-63
2021/12/10 23:15:17;;;;;;;;;;;;;;;;;;7397468;19;19922;-63
2021/12/10 23:17:53;;;;;;;;;;;;;;;;;;7394341;19;19911;-60
2021/12/10 23:20:26;;;;;;;;;;;;;;;;;;7393653;19;19922;-63
2021/12/10 23:22:53;;;;;;;;;;;;;;;;;;7393470;19;19922;-60
2021/12/10 23:25:26;;;;;;;;;;;;;;;;;;7393704;19;19978;-60
2021/12/10 23:27:56;;;;;;;;;;;;;;;;;;7392959;19;19950;-60
2021/12/10 23:30:30;;;;;;;;;;;;;;;;;;7392575;19;19915;-62